Time;durP1;ratioP1;P1;durP2;ratioP2;P2;SDS_P1;SDS_P2;PMS_P1;PMS_P2;Temp;Humidity;BMP_temperature;BMP_pressure;BME280_temperature;BME280_humidity;BME280_pressure;Samples;Min_cycle;Max_cycle;Signal;HPM_P1;HPM_P2
2021/08/02 00:01:55;;;;;;;3.95;1.50;;;17.10;98.00;;;;;;5029791;28;20053;-72
2021/08/02 00:04:24;;;;;;;2.00;1.52;;;16.90;98.30;;;;;;5029630;28;20476;-73
2021/08/02 00:06:57;;;;;;;3.92;1.73;;;16.90;98.40;;;;;;5030496;28;20033;-73
2021/08/02 00:09:24;;;;;;;3.92;1.55;;;17.10;98.40;;;;;;5030626;28;20717;-73
2021/08/02 00:11:58;;;;;;;3.92;1.60;;;17.20;98.10;;;;;;5030906;28;20096;-74
2021/08/02 00:14:24;;;;;;;2.25;1.50;;;17.40;98.30;;;;;;5029329;28;20065;-74
2021/08/02 00:16:50;;;;;;;4.72;1.60;;;17.30;98.10;;;;;;5030451;28;20052;-73
2021/08/02 00:19:17;;;;;;;3.83;1.40;;;17.20;98.10;;;;;;5030525;28;20087;-73
2021/08/02 00:21:44;;;;;;;2.45;1.35;;;17.20;98.30;;;;;;5030534;28;20108;-73
2021/08/02 00:24:10;;;;;;;3.53;2.03;;;17.20;98.20;;;;;;5030451;28;20029;-73
2021/08/02 00:26:37;;;;;;;2.47;1.55;;;17.10;98.30;;;;;;5030866;28;20531;-72
2021/08/02 00:29:05;;;;;;;4.87;1.80;;;17.30;98.40;;;;;;5030482;28;20128;-73
2021/08/02 00:31:31;;;;;;;5.45;1.95;;;17.30;98.30;;;;;;5030449;28;20065;-73
2021/08/02 00:33:57;;;;;;;11.13;2.40;;;17.20;98.30;;;;;;5030216;28;20117;-73
2021/08/02 00:36:40;;;;;;;4.65;1.95;;;17.20;98.50;;;;;;5030626;28;20121;-73
2021/08/02 00:39:24;;;;;;;8.77;2.22;;;17.20;98.60;;;;;;5034331;28;20071;-74
2021/08/02 00:42:17;;;;;;;6.30;2.00;;;17.10;98.60;;;;;;5034027;28;20034;-73
2021/08/02 00:45:00;;;;;;;4.05;1.70;;;17.10;98.70;;;;;;5033854;28;20037;-72
2021/08/02 00:47:33;;;;;;;3.35;2.08;;;17.10;98.70;;;;;;5033648;28;20029;-72
2021/08/02 00:50:09;;;;;;;5.55;2.38;;;16.90;99.00;;;;;;5033742;28;20456;-72
2021/08/02 00:52:41;;;;;;;4.70;2.00;;;17.00;99.00;;;;;;5033682;28;20059;-73
2021/08/02 00:55:07;;;;;;;3.20;2.35;;;16.90;99.00;;;;;;5033579;28;20025;-73
2021/08/02 00:57:37;;;;;;;4.03;2.08;;;16.90;99.10;;;;;;5032528;28;20375;-73
2021/08/02 01:00:09;;;;;;;9.98;2.42;;;16.90;99.20;;;;;;5033961;28;20025;-72
2021/08/02 01:02:38;;;;;;;4.18;1.80;;;16.80;99.40;;;;;;5033683;28;20034;-73
2021/08/02 01:05:07;;;;;;;7.55;2.17;;;16.80;99.20;;;;;;5033411;28;20423;-73
2021/08/02 01:07:40;;;;;;;7.68;2.22;;;16.80;99.10;;;;;;5033635;28;20037;-74
2021/08/02 01:10:08;;;;;;;6.57;1.98;;;16.80;99.40;;;;;;5032353;28;20099;-73
2021/08/02 01:12:36;;;;;;;6.07;2.22;;;16.70;99.40;;;;;;5033276;28;20029;-73
2021/08/02 01:15:02;;;;;;;8.68;2.35;;;16.70;99.50;;;;;;5033585;28;20355;-73
2021/08/02 01:17:29;;;;;;;6.38;2.40;;;16.70;99.50;;;;;;5033340;28;20030;-73
2021/08/02 01:19:55;;;;;;;6.15;2.38;;;16.70;99.60;;;;;;5033275;28;20063;-72
2021/08/02 01:22:27;;;;;;;4.72;2.20;;;16.80;99.50;;;;;;5033020;28;20061;-72
2021/08/02 01:24:53;;;;;;;7.07;2.15;;;16.70;99.40;;;;;;5033423;28;20030;-72
2021/08/02 01:27:37;;;;;;;6.30;2.17;;;16.70;99.40;;;;;;5032921;28;20060;-73
2021/08/02 01:30:22;;;;;;;4.47;2.20;;;16.60;99.50;;;;;;5033542;28;20022;-72
2021/08/02 01:32:49;;;;;;;6.35;2.20;;;16.50;99.70;;;;;;5033104;28;20037;-73
2021/08/02 01:35:15;;;;;;;4.63;2.45;;;16.50;99.60;;;;;;5036657;28;20033;-72
2021/08/02 01:37:42;;;;;;;7.07;2.20;;;16.60;99.60;;;;;;5052873;28;20421;-73
2021/08/02 01:40:08;;;;;;;4.72;2.45;;;16.60;99.60;;;;;;5052805;28;20041;-72
2021/08/02 01:42:34;;;;;;;4.03;2.38;;;16.50;99.60;;;;;;5052560;28;20097;-72
2021/08/02 01:44:59;;;;;;;8.57;2.85;;;16.50;99.60;;;;;;5053062;28;20025;-72
2021/08/02 01:47:34;;;;;;;10.90;2.28;;;16.50;99.60;;;;;;5052321;28;20087;-73
2021/08/02 01:50:25;;;;;;;7.35;2.33;;;16.50;99.50;;;;;;5052649;28;20025;-73
2021/08/02 01:53:14;;;;;;;10.20;2.72;;;16.40;99.90;;;;;;5051040;28;20037;-73
2021/08/02 01:55:43;;;;;;;7.65;2.80;;;16.20;99.60;;;;;;5052551;28;20033;-73
2021/08/02 01:58:09;;;;;;;6.82;2.38;;;16.30;99.70;;;;;;5052419;28;20463;-73
2021/08/02 02:00:45;;;;;;;8.82;2.33;;;16.30;99.40;;;;;;5052384;28;20053;-72
2021/08/02 02:03:18;;;;;;;7.78;2.13;;;16.30;99.30;;;;;;5052203;28;20078;-73
2021/08/02 02:06:00;;;;;;;3.97;1.90;;;16.30;99.30;;;;;;5052806;28;20072;-72
2021/08/02 02:08:37;;;;;;;6.15;2.17;;;16.30;99.30;;;;;;5052198;28;20068;-73
2021/08/02 02:11:03;;;;;;;9.20;2.42;;;16.40;99.30;;;;;;5052041;28;20030;-73
2021/08/02 02:13:40;;;;;;;5.07;2.30;;;16.40;99.30;;;;;;5052316;28;20037;-73
2021/08/02 02:16:07;;;;;;;5.07;2.10;;;16.30;99.20;;;;;;5051910;28;20043;-72
2021/08/02 02:18:37;;;;;;;5.30;2.10;;;16.30;99.40;;;;;;5051784;28;20032;-73
2021/08/02 02:21:03;;;;;;;4.18;2.05;;;16.30;99.30;;;;;;5052377;28;20028;-73
2021/08/02 02:23:30;;;;;;;6.22;2.42;;;16.30;99.40;;;;;;5050730;28;20129;-73
2021/08/02 02:25:57;;;;;;;4.50;2.10;;;16.20;99.20;;;;;;5051989;28;20029;-72
2021/08/02 02:28:23;;;;;;;4.85;2.30;;;16.20;99.40;;;;;;5050762;28;20049;-72
2021/08/02 02:30:51;;;;;;;7.70;2.70;;;16.10;99.40;;;;;;5051572;28;20033;-72
2021/08/02 02:33:17;;;;;;;6.28;2.42;;;16.10;99.40;;;;;;5051776;28;20047;-73
2021/08/02 02:35:46;;;;;;;7.85;2.42;;;16.00;99.50;;;;;;5051990;28;20025;-72
2021/08/02 02:38:14;;;;;;;6.70;2.45;;;16.00;99.60;;;;;;5051595;28;20116;-72
2021/08/02 02:40:43;;;;;;;5.15;2.20;;;16.00;99.50;;;;;;5051524;28;20029;-73
2021/08/02 02:43:11;;;;;;;5.85;2.20;;;16.00;99.50;;;;;;5051738;28;20060;-73
2021/08/02 02:45:37;;;;;;;;;;;16.00;99.40;;;;;;5051791;28;20075;-72
2021/08/02 02:48:05;;;;;;;4.68;2.28;;;15.90;99.40;;;;;;5051790;28;19917;-73
2021/08/02 02:50:32;;;;;;;4.82;2.53;;;16.00;99.30;;;;;;5051378;28;20033;-72
2021/08/02 02:53:00;;;;;;;5.40;2.30;;;16.00;99.20;;;;;;5051545;28;20040;-73
2021/08/02 02:55:27;;;;;;;8.52;2.78;;;16.00;99.30;;;;;;5051544;28;20102;-73
2021/08/02 02:57:52;;;;;;;5.85;2.20;;;16.00;99.30;;;;;;5051143;28;20029;-73
2021/08/02 03:00:19;;;;;;;7.38;2.55;;;15.90;99.50;;;;;;5049573;28;20351;-72
2021/08/02 03:02:48;;;;;;;4.95;2.92;;;15.80;99.80;;;;;;5050454;28;20053;-74
2021/08/02 03:05:15;;;;;;;9.77;3.42;;;15.70;99.90;;;;;;5051223;28;20029;-73
2021/08/02 03:07:41;;;;;;;5.20;2.50;;;15.80;99.80;;;;;;5050994;28;20040;-73
2021/08/02 03:10:08;;;;;;;4.80;2.83;;;15.80;99.80;;;;;;5050263;28;20455;-72
2021/08/02 03:12:34;;;;;;;5.65;2.80;;;15.70;99.90;;;;;;5051780;28;20029;-72
2021/08/02 03:15:01;;;;;;;5.38;3.22;;;15.70;99.90;;;;;;5051458;28;20028;-73
2021/08/02 03:17:27;;;;;;;5.93;2.72;;;15.60;99.80;;;;;;5049925;28;20695;-73
2021/08/02 03:19:52;;;;;;;8.70;2.75;;;15.60;99.80;;;;;;5050144;28;20041;-71
2021/08/02 03:22:34;;;;;;;7.68;3.10;;;15.70;99.70;;;;;;5051053;28;20065;-73
2021/08/02 03:25:26;;;;;;;9.23;2.80;;;15.70;99.70;;;;;;5049808;28;20463;-73
2021/08/02 03:27:57;;;;;;;6.60;2.38;;;15.70;99.60;;;;;;5050947;28;20126;-72
2021/08/02 03:30:25;;;;;;;6.47;2.75;;;15.70;99.50;;;;;;5049801;28;20082;-73
2021/08/02 03:32:52;;;;;;;15.30;3.15;;;15.80;99.30;;;;;;5050200;28;20104;-73
2021/08/02 03:35:19;;;;;;;6.15;2.40;;;15.70;99.30;;;;;;5051248;28;20037;-73
2021/08/02 03:37:48;;;;;;;9.50;2.55;;;15.80;99.40;;;;;;5050734;28;20044;-73
2021/08/02 03:40:15;;;;;;;8.93;2.60;;;15.70;99.40;;;;;;5050975;28;20040;-73
2021/08/02 03:42:43;;;;;;;7.45;2.80;;;15.70;99.40;;;;;;5050754;28;20033;-73
2021/08/02 03:45:09;;;;;;;4.10;2.40;;;15.70;99.20;;;;;;5051177;28;20017;-73
2021/08/02 03:47:36;;;;;;;3.55;2.03;;;15.70;99.10;;;;;;5050801;28;20040;-71
2021/08/02 03:50:03;;;;;;;6.38;2.63;;;15.80;99.20;;;;;;5049707;28;20029;-71
2021/08/02 03:52:29;;;;;;;6.47;2.25;;;15.70;99.00;;;;;;5050740;28;20047;-73
2021/08/02 03:54:54;;;;;;;3.83;2.65;;;15.70;99.00;;;;;;5050886;28;20029;-72
2021/08/02 03:57:21;;;;;;;11.88;2.58;;;15.60;99.10;;;;;;5049631;28;20489;-73
2021/08/02 03:59:49;;;;;;;5.18;2.00;;;15.60;99.00;;;;;;5051028;28;20024;-72
2021/08/02 04:02:15;;;;;;;10.45;2.95;;;15.70;99.00;;;;;;5050364;28;20052;-72
2021/08/02 04:04:40;;;;;;;10.98;2.65;;;15.70;99.00;;;;;;5049582;28;20475;-73
2021/08/02 04:07:06;;;;;;;4.28;1.77;;;15.60;98.90;;;;;;5050446;28;20344;-72
2021/08/02 04:09:36;;;;;;;4.30;2.45;;;15.50;99.00;;;;;;5049413;28;20025;-73
2021/08/02 04:12:01;;;;;;;6.40;2.03;;;15.60;99.00;;;;;;5051988;28;20017;-73
2021/08/02 04:14:27;;;;;;;9.25;2.13;;;15.40;99.00;;;;;;5053353;28;20040;-73
2021/08/02 04:16:53;;;;;;;7.00;2.10;;;15.50;99.00;;;;;;5054202;28;20128;-74
2021/08/02 04:19:18;;;;;;;5.40;2.17;;;15.60;98.90;;;;;;5053415;28;20037;-73
2021/08/02 04:21:44;;;;;;;6.82;2.75;;;15.50;98.70;;;;;;5054347;28;20036;-72
2021/08/02 04:24:09;;;;;;;5.40;1.90;;;15.50;98.80;;;;;;5054443;28;20095;-73
2021/08/02 04:26:35;;;;;;;7.88;2.60;;;15.50;98.70;;;;;;5054531;28;20063;-73
2021/08/02 04:29:01;;;;;;;4.57;1.90;;;15.50;98.70;;;;;;5054156;28;20430;-72
2021/08/02 04:31:30;;;;;;;5.22;2.10;;;15.60;98.60;;;;;;5054367;28;20078;-73
2021/08/02 04:33:57;;;;;;;6.28;1.65;;;15.60;98.40;;;;;;5054433;28;20090;-73
2021/08/02 04:36:23;;;;;;;8.68;2.13;;;15.50;98.30;;;;;;5054206;28;20024;-73
2021/08/02 04:38:49;;;;;;;8.32;1.92;;;15.50;98.30;;;;;;5054377;28;20017;-73
2021/08/02 04:41:15;;;;;;;5.68;2.22;;;15.50;98.20;;;;;;5053761;28;20488;-73
2021/08/02 04:43:41;;;;;;;4.95;1.75;;;15.60;98.20;;;;;;5053986;28;20362;-74
2021/08/02 04:46:07;;;;;;;6.80;2.92;;;15.60;98.20;;;;;;5053936;28;20033;-72
2021/08/02 04:48:32;;;;;;;4.63;1.80;;;15.50;98.00;;;;;;5053512;28;20117;-73
2021/08/02 04:50:58;;;;;;;8.38;1.65;;;15.70;98.10;;;;;;5052975;28;20496;-73
2021/08/02 04:53:24;;;;;;;6.95;1.80;;;15.50;97.90;;;;;;5052809;28;20377;-73
2021/08/02 04:55:50;;;;;;;7.70;2.00;;;15.60;97.90;;;;;;5053641;28;20120;-73
2021/08/02 04:58:15;;;;;;;8.40;1.83;;;15.50;97.80;;;;;;5053619;28;20355;-72
2021/08/02 05:00:41;;;;;;;8.73;1.50;;;15.50;97.90;;;;;;5053539;28;20040;-74
2021/08/02 05:03:06;;;;;;;3.15;1.42;;;15.50;97.80;;;;;;5053687;28;20057;-73
2021/08/02 05:05:32;;;;;;;3.92;1.40;;;15.60;97.80;;;;;;5053543;28;20048;-73
2021/08/02 05:07:57;;;;;;;5.63;1.70;;;15.60;97.70;;;;;;5052128;28;20040;-72
2021/08/02 05:10:23;;;;;;;12.68;1.83;;;15.60;97.60;;;;;;5053428;28;20033;-72
2021/08/02 05:12:52;;;;;;;4.40;1.10;;;15.60;97.50;;;;;;5053320;28;20048;-73
2021/08/02 05:15:18;;;;;;;4.13;1.40;;;15.70;97.50;;;;;;5053203;28;20051;-72
2021/08/02 05:17:44;;;;;;;8.25;1.40;;;15.70;97.40;;;;;;5053512;28;20387;-73
2021/08/02 05:20:10;;;;;;;3.65;1.55;;;15.70;97.30;;;;;;5053257;28;20025;-72
2021/08/02 05:22:35;;;;;;;6.65;2.70;;;15.70;97.30;;;;;;5052331;28;20222;-72
2021/08/02 05:25:01;;;;;;;6.05;1.55;;;15.70;97.30;;;;;;5052401;28;20214;-72
2021/08/02 05:27:27;;;;;;;5.22;1.40;;;15.60;97.30;;;;;;5052110;28;20025;-72
2021/08/02 05:29:53;;;;;;;5.78;1.40;;;15.60;97.40;;;;;;5053279;28;20104;-72
2021/08/02 05:32:18;;;;;;;5.00;1.40;;;15.60;97.40;;;;;;5052998;28;20029;-72
2021/08/02 05:34:44;;;;;;;9.23;1.60;;;15.70;97.40;;;;;;5052773;28;20021;-73
2021/08/02 05:37:12;;;;;;;4.25;1.30;;;15.70;97.50;;;;;;5052592;28;20033;-72
2021/08/02 05:39:39;;;;;;;12.17;1.70;;;15.70;97.40;;;;;;5052625;28;20029;-72
2021/08/02 05:42:05;;;;;;;6.07;1.65;;;15.70;97.40;;;;;;5052092;28;20331;-73
2021/08/02 05:44:32;;;;;;;4.72;1.50;;;15.70;97.30;;;;;;5052663;28;20052;-73
2021/08/02 05:46:58;;;;;;;2.50;1.08;;;15.80;97.30;;;;;;5052622;28;20363;-71
2021/08/02 05:49:24;;;;;;;7.85;1.50;;;15.80;97.20;;;;;;5051383;28;20060;-72
2021/08/02 05:51:49;;;;;;;5.28;1.50;;;15.90;97.20;;;;;;5051333;28;20541;-73
2021/08/02 05:54:15;;;;;;;3.13;1.20;;;15.80;97.00;;;;;;5051553;28;20032;-73
2021/08/02 05:56:41;;;;;;;8.00;1.20;;;15.80;97.10;;;;;;5052829;28;20025;-73
2021/08/02 05:59:07;;;;;;;6.45;1.50;;;15.80;97.20;;;;;;5051290;28;20466;-74
2021/08/02 06:01:33;;;;;;;5.25;1.65;;;15.80;97.10;;;;;;5052180;28;20114;-74
2021/08/02 06:03:58;;;;;;;5.57;1.30;;;15.90;97.00;;;;;;5052231;28;20029;-71
2021/08/02 06:06:24;;;;;;;9.77;2.20;;;15.90;96.90;;;;;;5052062;28;20025;-73
2021/08/02 06:08:49;;;;;;;9.43;1.58;;;16.00;97.00;;;;;;5052143;28;20472;-73
2021/08/02 06:11:18;;;;;;;12.20;1.25;;;16.00;96.90;;;;;;5052067;28;20434;-72
2021/08/02 06:13:44;;;;;;;5.90;1.50;;;16.10;96.80;;;;;;5052009;28;20045;-73
2021/08/02 06:16:09;;;;;;;6.43;1.38;;;16.20;96.80;;;;;;5052123;28;20355;-73
2021/08/02 06:18:35;;;;;;;8.15;1.60;;;16.30;96.60;;;;;;5051876;28;20025;-73
2021/08/02 06:21:01;;;;;;;8.93;1.38;;;16.30;96.60;;;;;;5052285;28;20029;-74
2021/08/02 06:23:26;;;;;;;4.88;1.33;;;16.20;96.40;;;;;;5051473;28;20037;-73
2021/08/02 06:25:52;;;;;;;11.27;1.65;;;16.20;96.50;;;;;;5051835;28;20044;-73
2021/08/02 06:28:17;;;;;;;5.20;1.15;;;16.20;96.50;;;;;;5050544;28;20049;-72
2021/08/02 06:30:43;;;;;;;9.20;1.20;;;16.20;96.40;;;;;;5051648;28;20029;-73
2021/08/02 06:33:09;;;;;;;5.13;1.08;;;16.30;96.40;;;;;;5051846;28;20636;-73
2021/08/02 06:35:36;;;;;;;5.43;1.23;;;16.40;96.50;;;;;;5050820;28;20493;-74
2021/08/02 06:38:03;;;;;;;6.78;1.40;;;16.40;96.40;;;;;;5051538;28;20086;-73
2021/08/02 06:40:28;;;;;;;2.58;1.13;;;16.50;96.30;;;;;;5051517;28;20029;-74
2021/08/02 06:42:54;;;;;;;7.80;1.30;;;16.60;96.10;;;;;;5051747;28;20359;-73
2021/08/02 06:45:19;;;;;;;7.82;1.52;;;16.60;96.20;;;;;;5051433;28;20456;-73
2021/08/02 06:47:46;;;;;;;9.32;1.50;;;16.60;96.20;;;;;;5051630;28;20032;-72
2021/08/02 06:50:12;;;;;;;4.72;1.50;;;16.70;96.10;;;;;;5051260;28;20029;-74
2021/08/02 06:52:37;;;;;;;2.00;1.13;;;16.80;96.00;;;;;;5051156;28;20352;-74
2021/08/02 06:55:03;;;;;;;5.93;1.10;;;16.80;95.80;;;;;;5051084;28;20374;-73
2021/08/02 06:57:29;;;;;;;6.00;1.15;;;16.90;95.70;;;;;;5050355;28;20136;-73
2021/08/02 06:59:56;;;;;;;2.72;1.08;;;16.90;95.70;;;;;;5051677;28;20506;-73
2021/08/02 07:02:21;;;;;;;6.25;1.13;;;17.00;95.60;;;;;;5050806;28;20116;-74
2021/08/02 07:04:47;;;;;;;5.85;1.20;;;17.00;95.40;;;;;;5050894;28;20108;-72
2021/08/02 07:07:13;;;;;;;6.60;1.13;;;17.10;95.40;;;;;;5050704;28;20041;-73
2021/08/02 07:09:38;;;;;;;5.10;0.90;;;17.10;95.20;;;;;;5051061;28;20075;-73
2021/08/02 07:12:04;;;;;;;7.35;1.15;;;17.10;95.00;;;;;;5051293;28;20025;-73
2021/08/02 07:14:30;;;;;;;5.80;1.08;;;17.20;95.10;;;;;;5051048;28;20037;-73
2021/08/02 07:16:56;;;;;;;6.75;1.08;;;17.20;95.00;;;;;;5050811;28;20086;-73
2021/08/02 07:19:21;;;;;;;10.80;1.25;;;17.20;95.00;;;;;;5050909;28;20112;-72
2021/08/02 07:21:47;;;;;;;5.75;1.55;;;17.40;95.00;;;;;;5050663;28;20199;-72
2021/08/02 07:24:12;;;;;;;9.88;1.80;;;17.40;94.70;;;;;;5050675;28;20091;-73
2021/08/02 07:26:38;;;;;;;6.72;1.25;;;17.50;94.70;;;;;;5051291;28;20029;-74
2021/08/02 07:29:04;;;;;;;8.25;1.30;;;17.60;94.40;;;;;;5050723;28;20033;-72
2021/08/02 07:31:30;;;;;;;4.25;1.13;;;17.70;94.50;;;;;;5050772;28;20032;-72
2021/08/02 07:33:55;;;;;;;4.72;0.90;;;17.80;94.00;;;;;;5050723;28;20474;-72
2021/08/02 07:36:21;;;;;;;9.48;1.30;;;17.70;93.90;;;;;;5050999;28;20324;-72
2021/08/02 07:38:47;;;;;;;7.03;1.30;;;17.90;93.80;;;;;;5051132;28;20172;-72
2021/08/02 07:41:13;;;;;;;5.45;1.15;;;17.90;93.70;;;;;;5050639;28;20037;-72
2021/08/02 07:43:39;;;;;;;12.05;1.02;;;17.90;93.50;;;;;;5050521;28;20369;-72
2021/08/02 07:46:05;;;;;;;5.47;1.30;;;18.00;93.30;;;;;;5051879;28;20079;-73
2021/08/02 07:48:31;;;;;;;4.20;1.50;;;18.10;93.50;;;;;;5054689;28;20037;-73
2021/08/02 07:50:57;;;;;;;7.53;1.38;;;18.20;93.40;;;;;;5054003;28;20298;-75
2021/08/02 07:53:22;;;;;;;3.92;1.40;;;18.30;93.10;;;;;;5054735;28;20033;-72
2021/08/02 07:55:49;;;;;;;8.90;1.08;;;18.40;93.20;;;;;;5054528;28;20062;-73
2021/08/02 07:58:14;;;;;;;7.85;1.52;;;18.60;92.60;;;;;;5054234;28;20124;-73
2021/08/02 08:00:40;;;;;;;7.78;1.58;;;18.50;92.50;;;;;;5054413;28;20166;-73
2021/08/02 08:03:06;;;;;;;6.15;1.40;;;18.50;92.90;;;;;;5054787;28;20017;-75
2021/08/02 08:05:31;;;;;;;3.65;1.35;;;18.70;92.70;;;;;;5054264;28;20628;-72
2021/08/02 08:07:57;;;;;;;6.55;1.20;;;18.70;92.20;;;;;;5054203;28;20048;-73
2021/08/02 08:10:24;;;;;;;5.57;1.10;;;18.80;92.40;;;;;;5054233;28;20037;-73
2021/08/02 08:12:51;;;;;;;2.05;1.00;;;18.80;92.30;;;;;;5054544;28;20060;-72
2021/08/02 08:15:18;;;;;;;6.63;1.25;;;18.90;92.10;;;;;;5054202;28;20018;-72
2021/08/02 08:17:44;;;;;;;5.90;1.50;;;19.00;92.00;;;;;;5054519;28;20078;-73
2021/08/02 08:20:12;;;;;;;7.15;1.50;;;19.00;91.70;;;;;;5054192;28;20114;-73
2021/08/02 08:22:39;;;;;;;10.38;1.77;;;18.90;91.70;;;;;;5053894;28;20089;-72
2021/08/02 08:25:05;;;;;;;8.73;1.40;;;19.20;91.90;;;;;;5054245;28;20167;-74
2021/08/02 08:27:31;;;;;;;4.47;1.45;;;19.80;91.60;;;;;;5052816;28;20025;-73
2021/08/02 08:29:57;;;;;;;7.13;1.40;;;20.40;90.70;;;;;;5054389;28;20036;-71
2021/08/02 08:32:22;;;;;;;5.07;1.05;;;21.00;88.40;;;;;;5053930;28;20056;-73
2021/08/02 08:34:48;;;;;;;5.53;1.00;;;22.50;89.50;;;;;;5053826;28;20053;-73
2021/08/02 08:37:14;;;;;;;5.00;1.33;;;23.30;84.30;;;;;;5053686;28;20032;-74
2021/08/02 08:39:39;;;;;;;5.30;1.27;;;24.00;82.20;;;;;;5053756;28;20025;-73
2021/08/02 08:42:06;;;;;;;7.28;0.93;;;24.50;80.40;;;;;;5053973;28;20024;-73
2021/08/02 08:44:33;;;;;;;5.18;0.90;;;24.10;78.20;;;;;;5053529;28;20029;-72
2021/08/02 08:47:00;;;;;;;3.80;1.30;;;23.40;77.20;;;;;;5053521;28;20146;-73
2021/08/02 08:49:25;;;;;;;6.57;1.65;;;22.70;78.60;;;;;;5053508;28;20041;-74
2021/08/02 08:51:53;;;;;;;9.52;1.30;;;22.80;80.60;;;;;;5053565;28;20033;-72
2021/08/02 08:54:19;;;;;;;3.88;1.15;;;22.90;78.60;;;;;;5052310;28;20464;-72
2021/08/02 08:56:45;;;;;;;1.77;0.70;;;22.80;78.90;;;;;;5053682;28;20347;-73
2021/08/02 08:59:13;;;;;;;3.78;0.85;;;22.00;78.70;;;;;;5052528;28;20029;-73
2021/08/02 09:01:41;;;;;;;6.78;1.15;;;22.10;76.80;;;;;;5053139;28;20090;-72
2021/08/02 09:04:07;;;;;;;7.38;0.95;;;22.70;76.70;;;;;;5052992;28;20068;-72
2021/08/02 09:06:47;;;;;;;6.57;0.85;;;22.80;75.60;;;;;;5052783;28;20112;-73
2021/08/02 09:09:25;;;;;;;3.10;0.90;;;22.10;75.70;;;;;;5053287;28;20112;-72
2021/08/02 09:12:06;;;;;;;4.22;0.82;;;21.90;76.40;;;;;;5053406;28;20013;-72
2021/08/02 09:14:32;;;;;;;2.50;0.82;;;21.70;76.90;;;;;;5053131;28;20031;-71
2021/08/02 09:17:00;;;;;;;9.55;1.20;;;21.40;77.90;;;;;;5053283;28;20029;-73
2021/08/02 09:19:46;;;;;;;5.85;1.73;;;21.20;78.90;;;;;;5053018;28;20082;-70
2021/08/02 09:22:12;;;;;;;6.43;1.02;;;21.00;80.00;;;;;;5052462;28;20049;-72
2021/08/02 09:24:37;;;;;;;2.45;0.90;;;21.20;79.20;;;;;;5052633;28;20398;-72
2021/08/02 09:27:03;;;;;;;3.20;0.80;;;21.70;79.30;;;;;;5052890;28;20075;-73
2021/08/02 09:29:31;;;;;;;3.47;0.93;;;22.60;77.50;;;;;;5052652;28;20037;-72
2021/08/02 09:31:58;;;;;;;4.53;1.10;;;23.50;75.20;;;;;;5052252;28;20032;-73
2021/08/02 09:34:23;;;;;;;2.78;1.20;;;23.90;73.30;;;;;;5052636;28;20029;-74
2021/08/02 09:36:59;;;;;;;2.92;0.98;;;23.50;73.10;;;;;;5052604;28;20087;-74
2021/08/02 09:39:32;;;;;;;1.35;0.57;;;23.60;71.80;;;;;;5052766;28;20100;-72
2021/08/02 09:42:06;;;;;;;5.88;1.30;;;23.20;72.70;;;;;;5052870;28;20546;-71
2021/08/02 09:44:32;;;;;;;5.40;0.90;;;23.40;73.00;;;;;;5051632;28;20114;-72
2021/08/02 09:47:08;;;;;;;3.38;0.93;;;23.10;73.50;;;;;;5052554;28;20033;-73
2021/08/02 09:49:45;;;;;;;4.43;1.00;;;22.70;72.50;;;;;;5052014;28;20041;-73
2021/08/02 09:52:11;;;;;;;3.27;0.90;;;22.40;73.60;;;;;;5052571;28;20120;-71
2021/08/02 09:54:37;;;;;;;6.15;1.10;;;22.40;74.10;;;;;;5052198;28;20329;-72
2021/08/02 09:57:05;;;;;;;2.80;0.98;;;22.10;73.10;;;;;;5052427;28;20430;-72
2021/08/02 09:59:31;;;;;;;3.15;0.95;;;21.80;74.00;;;;;;5052306;28;20124;-72
2021/08/02 10:01:58;;;;;;;3.72;1.98;;;21.30;74.30;;;;;;5050732;28;20104;-71
2021/08/02 10:04:24;;;;;;;3.70;1.00;;;21.20;75.90;;;;;;5052137;28;20049;-73
2021/08/02 10:06:51;;;;;;;4.78;1.05;;;21.20;76.20;;;;;;5052168;28;20474;-72
2021/08/02 10:09:17;;;;;;;3.53;1.02;;;21.10;76.00;;;;;;5051821;28;20029;-73
2021/08/02 10:11:42;;;;;;;4.82;0.90;;;20.90;76.60;;;;;;5052423;28;20052;-72
2021/08/02 10:14:10;;;;;;;3.42;0.90;;;20.80;77.20;;;;;;5052078;28;20048;-73
2021/08/02 10:16:39;;;;;;;5.15;1.50;;;20.70;78.00;;;;;;5052140;28;20133;-72
2021/08/02 10:19:07;;;;;;;4.80;1.00;;;20.60;78.30;;;;;;5051654;28;20040;-72
2021/08/02 10:21:44;;;;;;;5.68;1.00;;;20.40;78.60;;;;;;5051604;28;20032;-72
2021/08/02 10:24:12;;;;;;;6.18;1.40;;;20.20;79.10;;;;;;5051888;28;20029;-74
2021/08/02 10:26:39;;;;;;;5.85;1.67;;;20.00;80.10;;;;;;5051075;28;20025;-73
2021/08/02 10:29:09;;;;;;;8.05;2.70;;;20.10;80.50;;;;;;5051395;28;20382;-72
2021/08/02 10:31:55;;;;;;;4.72;1.40;;;20.20;80.40;;;;;;5051153;28;20086;-73
2021/08/02 10:34:27;;;;;;;5.75;1.25;;;20.40;80.40;;;;;;5051339;28;20386;-73
2021/08/02 10:37:00;;;;;;;6.82;1.20;;;20.60;80.50;;;;;;5051568;28;20028;-73
2021/08/02 10:39:28;;;;;;;2.53;0.93;;;20.70;80.00;;;;;;5050343;28;20470;-74
2021/08/02 10:42:07;;;;;;;6.18;1.08;;;20.60;79.80;;;;;;5051857;28;20029;-73
2021/08/02 10:44:33;;;;;;;5.90;0.88;;;20.50;79.50;;;;;;5051152;28;20033;-72
2021/08/02 10:47:11;;;;;;;6.97;1.15;;;20.40;78.80;;;;;;5051363;28;20047;-72
2021/08/02 10:49:51;;;;;;;3.40;1.20;;;20.30;79.00;;;;;;5051163;28;20235;-72
2021/08/02 10:52:27;;;;;;;6.32;1.00;;;20.40;78.90;;;;;;5051350;28;20064;-72
2021/08/02 10:54:53;;;;;;;4.80;1.10;;;20.20;78.00;;;;;;5051294;28;20067;-73
2021/08/02 10:57:19;;;;;;;4.10;0.98;;;20.10;78.40;;;;;;5051275;28;20522;-72
2021/08/02 10:59:44;;;;;;;5.88;1.10;;;20.30;78.60;;;;;;5051642;28;20017;-73
2021/08/02 11:02:11;;;;;;;7.45;1.67;;;20.40;79.10;;;;;;5050155;28;20072;-72
2021/08/02 11:04:38;;;;;;;6.10;1.20;;;20.40;79.40;;;;;;5051409;28;20116;-74
2021/08/02 11:07:04;;;;;;;3.20;0.80;;;20.60;79.20;;;;;;5051162;28;20319;-72
2021/08/02 11:09:32;;;;;;;7.25;1.77;;;20.50;79.00;;;;;;5051030;28;20124;-72
2021/08/02 11:12:13;;;;;;;21.08;3.10;;;20.50;79.70;;;;;;5051808;28;20021;-71
2021/08/02 11:14:49;;;;;;;2.78;1.00;;;20.70;79.20;;;;;;5051214;28;20036;-74
2021/08/02 11:17:16;;;;;;;4.13;1.02;;;20.90;78.10;;;;;;5050829;28;20419;-72
2021/08/02 11:19:42;;;;;;;7.75;1.27;;;21.10;78.30;;;;;;5050933;28;20045;-72
2021/08/02 11:22:08;;;;;;;4.00;1.10;;;21.30;77.10;;;;;;5050330;28;20075;-72
2021/08/02 11:24:36;;;;;;;5.13;1.98;;;21.30;76.60;;;;;;5050563;28;20040;-72
2021/08/02 11:27:10;;;;;;;4.38;0.95;;;21.30;76.60;;;;;;5051407;28;20361;-72
2021/08/02 11:29:36;;;;;;;6.25;1.42;;;21.20;76.60;;;;;;5050950;28;20528;-72
2021/08/02 11:32:05;;;;;;;4.43;1.17;;;21.20;76.80;;;;;;5050650;28;20245;-72
2021/08/02 11:34:32;;;;;;;6.20;0.98;;;21.00;76.80;;;;;;5050550;28;20040;-71
2021/08/02 11:37:01;;;;;;;3.53;1.00;;;20.80;76.50;;;;;;5050756;28;20078;-72
2021/08/02 11:39:27;;;;;;;5.45;1.20;;;20.60;77.50;;;;;;5050537;28;20098;-73
2021/08/02 11:42:05;;;;;;;6.63;1.27;;;20.50;77.70;;;;;;5050950;28;20059;-72
2021/08/02 11:44:32;;;;;;;;;;;20.50;78.00;;;;;;5051509;28;20032;-74
2021/08/02 11:46:58;;;;;;;4.35;1.20;;;20.60;77.70;;;;;;5050556;28;19966;-72
2021/08/02 11:49:25;;;;;;;6.45;1.38;;;20.60;77.60;;;;;;5050341;28;20131;-71
2021/08/02 11:51:51;;;;;;;3.88;1.15;;;20.70;77.60;;;;;;5050596;28;20108;-72
2021/08/02 11:54:21;;;;;;;3.00;1.30;;;20.70;78.00;;;;;;5050404;28;20518;-73
2021/08/02 11:56:48;;;;;;;4.93;1.25;;;20.80;77.90;;;;;;5051023;28;20059;-72
2021/08/02 11:59:21;;;;;;;5.93;0.93;;;20.80;78.00;;;;;;5050724;28;20025;-72
2021/08/02 12:01:48;;;;;;;9.43;1.60;;;20.80;77.90;;;;;;5050299;28;20025;-72
2021/08/02 12:04:15;;;;;;;5.37;1.33;;;20.90;77.80;;;;;;5050302;28;20056;-73
2021/08/02 12:06:55;;;;;;;2.70;0.93;;;20.90;77.30;;;;;;5050302;28;20474;-72
2021/08/02 12:09:38;;;;;;;5.78;1.20;;;21.10;77.70;;;;;;5050471;28;20373;-73
2021/08/02 12:12:07;;;;;;;6.00;1.35;;;21.30;77.30;;;;;;5050628;28;20708;-73
2021/08/02 12:14:34;;;;;;;7.22;3.20;;;21.40;76.40;;;;;;5050314;28;20044;-71
2021/08/02 12:17:10;;;;;;;10.55;4.47;;;21.60;77.20;;;;;;5049265;28;20025;-71
2021/08/02 12:19:47;;;;;;;5.07;0.98;;;21.90;76.80;;;;;;5050172;28;20026;-72
2021/08/02 12:22:15;;;;;;;3.88;1.10;;;21.80;76.20;;;;;;5050244;28;20057;-71
2021/08/02 12:24:51;;;;;;;6.13;1.23;;;21.70;76.30;;;;;;5050218;28;20274;-72
2021/08/02 12:27:19;;;;;;;11.52;4.07;;;21.50;76.20;;;;;;5049972;28;20056;-72
2021/08/02 12:30:07;;;;;;;4.40;1.20;;;21.40;76.00;;;;;;5050436;28;20021;-72
2021/08/02 12:32:45;;;;;;;9.55;1.25;;;21.40;75.10;;;;;;5049419;28;20033;-72
2021/08/02 12:35:15;;;;;;;6.28;1.35;;;21.60;74.90;;;;;;5052872;28;20061;-72
2021/08/02 12:37:42;;;;;;;1.48;0.90;;;21.80;73.40;;;;;;5053793;28;20164;-72
2021/08/02 12:40:11;;;;;;;4.50;1.07;;;21.80;72.10;;;;;;5053840;28;20099;-72
2021/08/02 12:42:39;;;;;;;4.97;1.10;;;21.60;72.40;;;;;;5053658;28;20394;-73
2021/08/02 12:45:07;;;;;;;3.60;1.10;;;21.70;72.20;;;;;;5053994;28;20021;-71
2021/08/02 12:47:33;;;;;;;3.53;1.13;;;21.70;72.80;;;;;;5053474;28;20032;-72
2021/08/02 12:49:58;;;;;;;6.28;1.35;;;21.70;73.20;;;;;;5053520;28;20424;-72
2021/08/02 12:52:29;;;;;;;6.88;1.15;;;21.70;73.00;;;;;;5053289;28;20025;-72
2021/08/02 12:54:57;;;;;;;3.58;0.88;;;21.90;73.60;;;;;;5053414;28;20362;-73